createdAt,value
2023-02-05T00:01:17.340Z,67.95
2023-02-05T00:03:59.742Z,74.45
2023-02-05T00:06:48.757Z,73.25
2023-02-05T00:09:30.632Z,69.80
2023-02-05T00:12:19.339Z,75.13
2023-02-05T00:15:08.397Z,70.28
2023-02-05T00:17:56.733Z,71.38
2023-02-05T00:20:39.383Z,76.78
2023-02-05T00:23:21.522Z,81.65
2023-02-05T00:26:10.369Z,73.53
2023-02-05T00:28:59.384Z,84.38
2023-02-05T00:31:48.374Z,76.47
2023-02-05T00:34:30.576Z,88.18
2023-02-05T00:37:19.325Z,94.22
2023-02-05T00:40:01.651Z,98.05
2023-02-05T00:42:50.391Z,90.38
2023-02-05T00:45:39.660Z,97.40
2023-02-05T00:48:21.435Z,94.38
2023-02-05T00:51:03.847Z,98.50
2023-02-05T00:53:52.421Z,108.95
2023-02-05T00:56:34.568Z,93.95
2023-02-05T00:59:24.005Z,100.55
2023-02-05T01:02:14.448Z,99.93
2023-02-05T01:04:57.296Z,99.03
2023-02-05T01:07:46.441Z,109.18
2023-02-05T01:10:28.680Z,93.05
2023-02-05T01:13:18.824Z,105.20
2023-02-05T01:16:01.909Z,102.45
2023-02-05T01:18:56.369Z,97.07
2023-02-05T01:21:45.765Z,107.97
2023-02-05T01:24:28.384Z,99.53
2023-02-05T01:27:10.664Z,104.20
2023-02-05T01:29:59.447Z,97.07
2023-02-05T01:32:48.622Z,97.22
2023-02-05T01:35:31.596Z,97.22
2023-02-05T01:38:21.095Z,100.80
2023-02-05T01:41:04.423Z,97.63
2023-02-05T01:44:14.016Z,111.07
2023-02-05T01:47:04.494Z,96.05
2023-02-05T01:49:52.584Z,110.30
2023-02-05T01:52:35.424Z,107.80
2023-02-05T01:55:24.317Z,110.57
2023-02-05T01:58:08.716Z,125.68
2023-02-05T02:00:57.329Z,128.30
2023-02-05T02:03:39.677Z,119.50
2023-02-05T02:06:29.431Z,130.77
2023-02-05T02:09:14.631Z,122.30
2023-02-05T02:12:05.333Z,118.53
2023-02-05T02:14:50.712Z,121.18
2023-02-05T02:17:50.356Z,121.05
2023-02-05T02:20:43.406Z,116.88
2023-02-05T02:23:54.654Z,123.03
2023-02-05T02:27:04.483Z,119.90
2023-02-05T02:30:06.660Z,124.25
2023-02-05T02:33:11.373Z,127.47
2023-02-05T02:35:53.942Z,125.95
2023-02-05T02:39:10.366Z,120.60
2023-02-05T02:42:12.644Z,125.25
2023-02-05T02:45:15.359Z,115.05
2023-02-05T02:48:05.682Z,120.22
2023-02-05T02:50:57.639Z,113.25
2023-02-05T02:53:46.665Z,101.93
2023-02-05T02:56:39.435Z,104.25
2023-02-05T02:59:32.692Z,104.25
2023-02-05T03:02:24.338Z,92.65
2023-02-05T03:05:12.600Z,95.10
2023-02-05T03:08:07.409Z,86.78
2023-02-05T03:11:03.374Z,77.82
2023-02-05T03:13:46.908Z,79.28
2023-02-05T03:16:40.684Z,69.90
2023-02-05T03:19:37.374Z,86.15
2023-02-05T03:22:26.625Z,75.50
2023-02-05T03:25:10.654Z,69.95
2023-02-05T03:28:01.733Z,70.00
2023-02-05T03:30:54.438Z,77.57
2023-02-05T03:34:04.366Z,70.65
2023-02-05T03:36:57.695Z,63.30
2023-02-05T03:40:08.399Z,64.25
2023-02-05T03:43:01.672Z,68.93
2023-02-05T03:45:55.501Z,65.07
2023-02-05T03:49:11.668Z,52.45
2023-02-05T03:52:25.343Z,49.15
2023-02-05T03:55:11.718Z,48.20
2023-02-05T03:58:12.448Z,55.05
2023-02-05T04:00:55.648Z,55.05
2023-02-05T04:03:46.467Z,50.30
2023-02-05T04:06:29.692Z,48.03
2023-02-05T04:09:19.398Z,49.08
2023-02-05T04:12:03.655Z,45.72
2023-02-05T04:14:54.395Z,57.20
2023-02-05T04:17:44.261Z,51.17
2023-02-05T04:20:34.378Z,51.70
2023-02-05T04:23:25.322Z,47.70
2023-02-05T04:26:14.676Z,46.83
2023-02-05T04:29:06.359Z,47.78
2023-02-05T04:31:53.769Z,47.38
2023-02-05T04:34:42.352Z,44.00
2023-02-05T04:37:32.345Z,43.67
2023-02-05T04:40:22.348Z,40.33
2023-02-05T04:43:04.649Z,38.50
2023-02-05T04:45:53.349Z,34.72
2023-02-05T04:48:42.666Z,40.42
2023-02-05T04:51:25.350Z,37.40
2023-02-05T04:54:07.562Z,38.65
2023-02-05T04:56:56.310Z,37.47
2023-02-05T04:59:38.607Z,32.38
2023-02-05T05:02:27.491Z,40.15
2023-02-05T05:05:10.010Z,49.42
2023-02-05T05:08:00.395Z,45.20
2023-02-05T05:10:49.712Z,35.45
2023-02-05T05:13:32.554Z,39.55
2023-02-05T05:16:14.679Z,43.00
2023-02-05T05:19:09.313Z,48.25
2023-02-05T05:21:57.612Z,41.75
2023-02-05T05:24:40.342Z,49.40
2023-02-05T05:27:24.209Z,45.20
2023-02-05T05:30:13.349Z,41.65
2023-02-05T05:32:55.526Z,42.15
2023-02-05T05:35:44.400Z,46.50
2023-02-05T05:38:26.570Z,40.63
2023-02-05T05:41:33.420Z,45.20
2023-02-05T05:44:22.756Z,49.88
2023-02-05T05:47:05.379Z,48.30
2023-02-05T05:49:47.869Z,44.42
2023-02-05T05:52:36.317Z,46.15
2023-02-05T05:55:25.687Z,57.83
2023-02-05T05:58:08.379Z,47.58
2023-02-05T06:00:58.749Z,43.92
2023-02-05T06:03:40.702Z,37.50
2023-02-05T06:06:29.337Z,36.65
2023-02-05T06:09:11.648Z,38.08
2023-02-05T06:12:00.281Z,44.05
2023-02-05T06:14:42.635Z,45.83
2023-02-05T06:17:31.337Z,37.17
2023-02-05T06:20:13.721Z,40.42
2023-02-05T06:23:02.382Z,41.45
2023-02-05T06:25:44.625Z,37.47
2023-02-05T06:28:33.351Z,26.25
2023-02-05T06:31:15.743Z,24.58
2023-02-05T06:34:04.450Z,23.27
2023-02-05T06:36:46.551Z,35.50
2023-02-05T06:39:35.368Z,28.70
2023-02-05T06:42:18.588Z,29.70
2023-02-05T06:45:07.288Z,32.03
2023-02-05T06:47:49.750Z,26.42
2023-02-05T06:50:39.308Z,30.50
2023-02-05T06:53:21.755Z,29.85
2023-02-05T06:56:11.344Z,19.13
2023-02-05T06:58:53.667Z,20.15
2023-02-05T07:01:43.437Z,23.10
2023-02-05T07:04:25.640Z,23.02
2023-02-05T07:07:14.363Z,26.42
2023-02-05T07:09:57.755Z,22.45
2023-02-05T07:12:46.341Z,20.88
2023-02-05T07:15:35.644Z,16.67
2023-02-05T07:18:17.600Z,24.95
2023-02-05T07:21:06.435Z,21.70
2023-02-05T07:23:55.572Z,16.85
2023-02-05T07:26:37.390Z,22.77
2023-02-05T07:29:19.534Z,17.27
2023-02-05T07:32:08.393Z,24.25
2023-02-05T07:34:56.712Z,20.80
2023-02-05T07:37:39.450Z,16.70
2023-02-05T07:40:28.727Z,15.00
2023-02-05T07:43:10.327Z,22.33
2023-02-05T07:46:04.138Z,21.40
2023-02-05T07:48:53.685Z,22.70
2023-02-05T07:51:41.559Z,11.50
2023-02-05T07:54:24.438Z,12.35
2023-02-05T07:57:12.734Z,11.05
2023-02-05T07:59:55.373Z,20.98
2023-02-05T08:02:54.675Z,15.75
2023-02-05T08:05:36.942Z,18.88
2023-02-05T08:08:26.368Z,24.25
2023-02-05T08:11:11.639Z,19.88
2023-02-05T08:14:00.330Z,25.58
2023-02-05T08:16:49.319Z,20.70
2023-02-05T08:19:31.607Z,22.35
2023-02-05T08:22:20.337Z,15.35
2023-02-05T08:25:08.695Z,21.88
2023-02-05T08:27:51.422Z,22.45
2023-02-05T08:30:39.865Z,15.32
2023-02-05T08:33:22.325Z,20.73
2023-02-05T08:36:11.790Z,18.60
2023-02-05T08:38:53.406Z,20.23
2023-02-05T08:41:38.420Z,17.40
2023-02-05T08:44:27.412Z,17.10
2023-02-05T08:47:16.594Z,19.63
2023-02-05T08:49:59.394Z,22.30
2023-02-05T08:52:48.637Z,19.45
2023-02-05T08:55:31.476Z,18.80
2023-02-05T08:58:20.757Z,19.38
2023-02-05T09:01:10.371Z,17.15
2023-02-05T09:03:58.619Z,20.15
2023-02-05T09:06:41.639Z,19.70
2023-02-05T09:09:31.627Z,25.80
2023-02-05T09:12:14.368Z,17.55
2023-02-05T09:15:02.577Z,17.27
2023-02-05T09:17:45.342Z,15.85
2023-02-05T09:20:33.717Z,21.60
2023-02-05T09:23:18.434Z,10.90
2023-02-05T09:26:08.292Z,17.67
2023-02-05T09:28:51.418Z,15.88
2023-02-05T09:31:40.680Z,14.38
2023-02-05T09:34:23.328Z,15.30
2023-02-05T09:37:05.488Z,16.77
2023-02-05T09:43:05.684Z,16.95
2023-02-05T09:46:10.357Z,19.85
2023-02-05T09:49:25.648Z,22.27
2023-02-05T09:52:20.392Z,20.42
2023-02-05T09:55:32.916Z,19.13
2023-02-05T09:58:23.337Z,16.92
2023-02-05T10:01:20.834Z,21.17
2023-02-05T10:04:17.445Z,20.38
2023-02-05T10:07:27.234Z,19.95
2023-02-05T10:10:31.384Z,20.98
2023-02-05T10:13:37.791Z,16.88
2023-02-05T10:16:33.324Z,21.45
2023-02-05T10:20:05.521Z,20.70
2023-02-05T10:22:59.279Z,21.77
2023-02-05T10:25:51.279Z,18.70
2023-02-05T10:29:06.286Z,21.35
2023-02-05T10:31:50.878Z,24.92
2023-02-05T10:34:54.328Z,26.02
2023-02-05T10:37:51.541Z,22.25
2023-02-05T10:40:51.486Z,18.55
2023-02-05T10:43:45.618Z,16.38
2023-02-05T10:46:40.412Z,26.00
2023-02-05T10:49:40.688Z,22.65
2023-02-05T10:52:29.370Z,25.65
2023-02-05T10:55:12.981Z,24.95
2023-02-05T10:58:02.302Z,17.10
2023-02-05T11:00:44.820Z,24.58
2023-02-05T11:03:33.332Z,22.77
2023-02-05T11:06:18.700Z,27.67
2023-02-05T11:09:07.354Z,20.27
2023-02-05T11:11:49.642Z,22.48
2023-02-05T11:14:45.667Z,20.70
2023-02-05T11:17:34.866Z,27.23
2023-02-05T11:20:32.505Z,27.63
2023-02-05T11:23:32.062Z,17.05
2023-02-05T11:26:25.324Z,21.15
2023-02-05T11:29:32.586Z,20.90
2023-02-05T11:32:31.404Z,23.95
2023-02-05T11:35:27.842Z,24.95
2023-02-05T11:38:18.281Z,23.45
2023-02-05T11:41:04.662Z,20.50
2023-02-05T11:44:01.387Z,25.17
2023-02-05T11:47:00.077Z,29.08
2023-02-05T11:49:46.353Z,21.35
2023-02-05T11:52:34.411Z,22.45
2023-02-05T11:55:48.358Z,26.77
2023-02-05T11:58:39.797Z,29.60
2023-02-05T12:01:33.365Z,26.55
2023-02-05T12:04:21.441Z,18.52
2023-02-05T12:07:17.440Z,30.55
2023-02-05T12:10:06.786Z,21.30
2023-02-05T12:13:30.332Z,29.98
2023-02-05T12:16:26.675Z,30.92
2023-02-05T12:19:30.962Z,28.80
2023-02-05T12:22:18.560Z,26.90
2023-02-05T12:25:14.395Z,24.75
2023-02-05T12:28:13.655Z,19.35
2023-02-05T12:31:16.303Z,23.73
2023-02-05T12:34:14.264Z,34.75
2023-02-05T12:37:37.131Z,37.17
2023-02-05T12:40:40.274Z,32.50
2023-02-05T12:43:48.727Z,34.28
2023-02-05T12:46:52.365Z,31.25
2023-02-05T12:49:58.592Z,30.27
2023-02-05T12:52:54.287Z,36.13
2023-02-05T12:55:55.543Z,29.55
2023-02-05T12:58:46.341Z,24.95
2023-02-05T13:01:53.753Z,29.40
2023-02-05T13:04:40.331Z,29.90
2023-02-05T13:07:42.607Z,39.45
2023-02-05T13:10:36.336Z,26.98
2023-02-05T13:13:40.611Z,29.23
2023-02-05T13:16:27.329Z,28.67
2023-02-05T13:19:42.266Z,25.75
2023-02-05T13:22:58.326Z,31.00
2023-02-05T13:26:11.317Z,26.88
2023-02-05T13:29:13.677Z,35.50
2023-02-05T13:32:10.601Z,31.92
2023-02-05T13:35:06.300Z,36.40
2023-02-05T13:38:33.915Z,30.35
2023-02-05T13:41:26.353Z,34.97
2023-02-05T13:44:20.660Z,23.60
2023-02-05T13:47:36.377Z,35.35
2023-02-05T13:50:37.811Z,35.13
2023-02-05T13:53:52.344Z,32.67
2023-02-05T13:56:56.647Z,36.05
2023-02-05T13:59:51.262Z,39.95
2023-02-05T14:02:50.485Z,40.75
2023-02-05T14:05:45.358Z,42.58
2023-02-05T14:08:32.815Z,40.35
2023-02-05T14:11:21.317Z,40.70
2023-02-05T14:14:51.604Z,37.15
2023-02-05T14:17:40.357Z,35.47
2023-02-05T14:20:33.626Z,49.38
2023-02-05T14:23:54.316Z,38.85
2023-02-05T14:26:54.652Z,54.10
2023-02-05T14:29:49.336Z,45.13
2023-02-05T14:32:37.743Z,45.80
2023-02-05T14:35:51.361Z,45.42
2023-02-05T14:38:41.578Z,37.63
2023-02-05T14:41:27.350Z,49.50
2023-02-05T14:44:41.374Z,44.00
2023-02-05T14:47:28.088Z,39.13
2023-02-05T14:50:26.258Z,37.00
2023-02-05T14:53:11.424Z,44.92
2023-02-05T14:55:57.698Z,36.20
2023-02-05T14:58:53.342Z,49.03
2023-02-05T15:01:38.698Z,51.85
2023-02-05T15:04:51.300Z,41.38
2023-02-05T15:07:36.589Z,42.45
2023-02-05T15:10:31.351Z,49.25
2023-02-05T15:13:26.525Z,55.42
2023-02-05T15:16:25.347Z,52.03
2023-02-05T15:19:23.685Z,51.20
2023-02-05T15:22:07.724Z,43.10
2023-02-05T15:24:58.317Z,38.13
2023-02-05T15:27:48.289Z,41.72
2023-02-05T15:30:41.687Z,42.10
2023-02-05T15:33:46.635Z,35.30
2023-02-05T15:36:40.389Z,51.85
2023-02-05T15:40:16.596Z,41.13
2023-02-05T15:43:06.293Z,42.50
2023-02-05T15:45:55.620Z,44.83
2023-02-05T15:48:40.641Z,50.83
2023-02-05T15:51:41.614Z,43.15
2023-02-05T15:54:29.250Z,49.53
2023-02-05T15:57:30.327Z,46.47
2023-02-05T16:00:17.708Z,47.15
2023-02-05T16:03:11.410Z,48.80
2023-02-05T16:06:00.644Z,50.60
2023-02-05T16:08:55.266Z,45.78
2023-02-05T16:11:50.314Z,52.55
2023-02-05T16:14:38.589Z,56.05
2023-02-05T16:17:29.212Z,50.17
2023-02-05T16:20:39.333Z,44.30
2023-02-05T16:23:54.322Z,46.47
2023-02-05T16:26:53.537Z,52.80
2023-02-05T16:29:48.078Z,38.38
2023-02-05T16:32:45.237Z,39.83
2023-02-05T16:35:56.598Z,47.03
2023-02-05T16:38:45.290Z,50.38
2023-02-05T16:41:37.539Z,53.95
2023-02-05T16:44:39.278Z,50.00
2023-02-05T16:47:25.603Z,46.70
2023-02-05T16:50:46.673Z,47.17
2023-02-05T16:53:45.751Z,54.13
2023-02-05T16:56:43.288Z,61.63
2023-02-05T16:59:30.075Z,71.72
2023-02-05T17:02:36.322Z,61.08
2023-02-05T17:05:35.137Z,60.97
2023-02-05T17:08:24.290Z,64.88
2023-02-05T17:11:13.064Z,64.22
2023-02-05T17:14:30.632Z,70.53
2023-02-05T17:17:26.692Z,64.28
2023-02-05T17:20:31.427Z,59.97
2023-02-05T17:23:25.586Z,59.90
2023-02-05T17:26:08.381Z,58.58
2023-02-05T17:29:15.114Z,67.03
2023-02-05T17:31:58.277Z,55.15
2023-02-05T17:34:46.666Z,59.38
2023-02-05T17:37:29.374Z,61.10
2023-02-05T17:40:20.705Z,65.32
2023-02-05T17:43:03.313Z,69.72
2023-02-05T17:45:51.589Z,68.90
2023-02-05T17:48:33.268Z,67.15
2023-02-05T17:51:27.684Z,82.45
2023-02-05T17:54:10.654Z,75.20
2023-02-05T17:57:03.030Z,77.47
2023-02-05T18:00:32.401Z,68.93
2023-02-05T18:03:14.665Z,61.90
2023-02-05T18:06:03.320Z,60.70
2023-02-05T18:08:53.649Z,59.20
2023-02-05T18:11:36.272Z,62.80
2023-02-05T18:14:26.173Z,59.00
2023-02-05T18:17:09.230Z,58.67
2023-02-05T18:20:04.260Z,58.65
2023-02-05T18:22:52.688Z,53.25
2023-02-05T18:25:35.248Z,61.25
2023-02-05T18:28:24.555Z,55.70
2023-02-05T18:31:14.414Z,53.10
2023-02-05T18:34:02.646Z,52.45
2023-02-05T18:36:45.257Z,54.15
2023-02-05T18:39:34.584Z,57.20
2023-02-05T18:42:19.320Z,67.00
2023-02-05T18:45:09.598Z,57.72
2023-02-05T18:47:52.271Z,64.97
2023-02-05T18:50:40.602Z,68.97
2023-02-05T18:53:23.308Z,66.20
2023-02-05T18:56:17.437Z,64.22
2023-02-05T18:59:11.542Z,63.20
2023-02-05T19:02:00.681Z,81.93
2023-02-05T19:04:43.212Z,80.32
2023-02-05T19:07:32.603Z,80.07
2023-02-05T19:10:15.282Z,77.72
2023-02-05T19:13:05.880Z,73.10
2023-02-05T19:15:48.361Z,89.05
2023-02-05T19:18:36.506Z,73.97
2023-02-05T19:21:29.870Z,79.03
2023-02-05T19:24:12.519Z,81.22
2023-02-05T19:27:04.242Z,85.32
2023-02-05T19:29:47.623Z,80.63
2023-02-05T19:32:36.202Z,86.82
2023-02-05T19:35:18.710Z,83.32
2023-02-05T19:38:07.295Z,87.05
2023-02-05T19:40:49.582Z,85.40
2023-02-05T19:43:39.318Z,80.10
2023-02-05T19:46:21.574Z,81.38
2023-02-05T19:49:19.366Z,66.70
2023-02-05T19:52:02.976Z,68.82
2023-02-05T19:54:52.363Z,73.18
2023-02-05T19:57:35.640Z,58.63
2023-02-05T20:00:24.319Z,63.28
2023-02-05T20:03:08.390Z,61.45
2023-02-05T20:05:57.188Z,59.40
2023-02-05T20:08:39.570Z,53.55
2023-02-05T20:11:28.235Z,54.58
2023-02-05T20:14:11.324Z,50.75
2023-02-05T20:17:01.249Z,55.78
2023-02-05T20:20:10.321Z,53.38
2023-02-05T20:23:02.198Z,53.35
2023-02-05T20:25:44.528Z,67.88
2023-02-05T20:28:35.245Z,56.55
2023-02-05T20:31:42.324Z,56.20
2023-02-05T20:34:27.523Z,52.00
2023-02-05T20:37:20.254Z,58.80
2023-02-05T20:40:09.600Z,53.90
2023-02-05T20:42:54.500Z,58.28
2023-02-05T20:45:44.862Z,53.13
2023-02-05T20:48:26.684Z,56.63
2023-02-05T20:51:20.566Z,50.25
2023-02-05T20:54:06.572Z,49.97
2023-02-05T20:56:57.208Z,53.35
2023-02-05T20:59:48.277Z,58.95
2023-02-05T21:02:37.377Z,53.55
2023-02-05T21:05:20.526Z,53.30
2023-02-05T21:08:09.238Z,59.08
2023-02-05T21:10:51.577Z,67.95
2023-02-05T21:13:40.214Z,56.10
2023-02-05T21:16:25.622Z,55.20
2023-02-05T21:19:16.246Z,52.85
2023-02-05T21:22:11.034Z,48.67
2023-02-05T21:25:00.212Z,51.28
2023-02-05T21:27:42.733Z,53.22
2023-02-05T21:30:31.249Z,49.65
2023-02-05T21:33:20.248Z,49.15
2023-02-05T21:36:13.166Z,46.80
2023-02-05T21:39:02.566Z,46.40
2023-02-05T21:41:53.618Z,39.92
2023-02-05T21:44:36.555Z,44.55
2023-02-05T21:47:25.338Z,48.72
2023-02-05T21:50:08.497Z,42.75
2023-02-05T21:52:57.286Z,42.63
2023-02-05T21:55:40.451Z,37.85
2023-02-05T21:58:29.234Z,40.92
2023-02-05T22:01:22.620Z,37.67
2023-02-05T22:04:23.265Z,37.40
2023-02-05T22:07:05.431Z,42.90
2023-02-05T22:09:54.214Z,38.97
2023-02-05T22:12:36.543Z,43.03
2023-02-05T22:15:26.213Z,38.35
2023-02-05T22:18:08.520Z,49.08
2023-02-05T22:20:57.162Z,41.67
2023-02-05T22:23:39.520Z,49.05
2023-02-05T22:26:31.213Z,55.35
2023-02-05T22:29:22.234Z,56.92
2023-02-05T22:32:11.259Z,57.67
2023-02-05T22:34:53.976Z,66.05
2023-02-05T22:37:44.237Z,67.70
2023-02-05T22:40:27.635Z,67.63
2023-02-05T22:43:16.199Z,66.75
2023-02-05T22:45:58.562Z,67.13
2023-02-05T22:48:49.177Z,65.80
2023-02-05T22:51:41.584Z,72.68
2023-02-05T22:54:30.178Z,65.55
2023-02-05T22:57:12.563Z,64.55
2023-02-05T23:00:02.161Z,72.43
2023-02-05T23:02:44.506Z,67.22
2023-02-05T23:05:34.656Z,69.72
2023-02-05T23:08:17.520Z,69.20
2023-02-05T23:11:12.199Z,68.72
2023-02-05T23:13:54.488Z,64.38
2023-02-05T23:16:46.386Z,67.10
2023-02-05T23:19:29.544Z,73.25
2023-02-05T23:22:18.274Z,75.22
2023-02-05T23:25:01.566Z,66.55
2023-02-05T23:27:50.209Z,70.55
2023-02-05T23:30:32.462Z,64.47
2023-02-05T23:33:21.246Z,69.47
2023-02-05T23:36:03.513Z,65.53
2023-02-05T23:38:52.167Z,67.00
2023-02-05T23:41:45.073Z,69.25
2023-02-05T23:44:34.260Z,72.05
2023-02-05T23:47:16.528Z,73.90
2023-02-05T23:50:05.279Z,67.13
2023-02-05T23:52:47.516Z,71.13
2023-02-05T23:55:36.420Z,74.20
2023-02-05T23:58:26.445Z,69.22
